Time;durP1;ratioP1;P1;durP2;ratioP2;P2;SDS_P1;SDS_P2;PMS_P1;PMS_P2;Temp;Humidity;BMP_temperature;BMP_pressure;BME280_temperature;BME280_humidity;BME280_pressure;Samples;Min_cycle;Max_cycle;Signal;HPM_P1;HPM_P2
2022/09/16 00:00:33;;;;;;;2.85;1.05;;;;;;;;;;4773830;30;20075;-77
2022/09/16 00:02:59;;;;;;;3.33;1.30;;;;;;;;;;4774221;30;20047;-76
2022/09/16 00:05:25;;;;;;;2.22;1.30;;;;;;;;;;4773712;30;20138;-76
2022/09/16 00:07:51;;;;;;;3.00;1.40;;;;;;;;;;4773421;30;20385;-76
2022/09/16 00:10:18;;;;;;;1.65;1.40;;;;;;;;;;4773366;30;20079;-77
2022/09/16 00:12:44;;;;;;;4.13;1.30;;;;;;;;;;4773881;30;20054;-77
2022/09/16 00:15:10;;;;;;;1.52;1.20;;;;;;;;;;4773273;30;20051;-77
2022/09/16 00:17:37;;;;;;;3.65;1.40;;;;;;;;;;4773448;30;20047;-76
2022/09/16 00:20:04;;;;;;;4.25;1.48;;;;;;;;;;4773095;30;20039;-76
2022/09/16 00:22:30;;;;;;;2.05;1.50;;;;;;;;;;4772751;30;20043;-77
2022/09/16 00:24:56;;;;;;;5.20;1.70;;;;;;;;;;4773079;30;20443;-77
2022/09/16 00:27:22;;;;;;;5.03;1.70;;;;;;;;;;4773619;30;20047;-77
2022/09/16 00:29:49;;;;;;;3.45;1.70;;;;;;;;;;4773564;30;20048;-77
2022/09/16 00:32:15;;;;;;;3.97;2.10;;;;;;;;;;4773343;30;20492;-77
2022/09/16 00:34:41;;;;;;;6.25;2.00;;;;;;;;;;4773200;30;20047;-76
2022/09/16 00:37:08;;;;;;;3.97;1.85;;;;;;;;;;4772949;30;20058;-77
2022/09/16 00:39:35;;;;;;;4.55;2.22;;;;;;;;;;4772866;30;20489;-77
2022/09/16 00:42:02;;;;;;;3.65;2.38;;;;;;;;;;4772426;30;20524;-76
2022/09/16 00:44:47;;;;;;;4.78;2.13;;;;;;;;;;4772141;30;20504;-77
2022/09/16 00:47:15;;;;;;;3.38;2.20;;;;;;;;;;4772745;30;20043;-77
2022/09/16 00:49:43;;;;;;;5.70;2.75;;;;;;;;;;4772985;30;20069;-76
2022/09/16 00:52:09;;;;;;;4.95;2.38;;;;;;;;;;4773059;30;20059;-76
2022/09/16 00:54:37;;;;;;;6.28;2.40;;;;;;;;;;4773379;30;20052;-77
2022/09/16 00:57:05;;;;;;;4.43;2.13;;;;;;;;;;4773053;30;20056;-77
2022/09/16 00:59:33;;;;;;;3.08;2.25;;;;;;;;;;4773324;30;20052;-77
2022/09/16 01:02:02;;;;;;;5.32;2.47;;;;;;;;;;4772897;30;20163;-77
2022/09/16 01:04:30;;;;;;;4.88;2.53;;;;;;;;;;4772691;30;20135;-77
2022/09/16 01:06:57;;;;;;;6.03;2.85;;;;;;;;;;4772863;30;20138;-77
2022/09/16 01:09:24;;;;;;;5.22;2.63;;;;;;;;;;4772926;30;20048;-76
2022/09/16 01:11:51;;;;;;;4.55;2.72;;;;;;;;;;4773293;30;20055;-76
2022/09/16 01:17:08;;;;;;;6.32;2.80;;;;;;;;;;4772288;30;20051;-77
2022/09/16 01:19:34;;;;;;;4.07;2.63;;;;;;;;;;4772791;30;20496;-77
2022/09/16 01:22:00;;;;;;;3.92;2.88;;;;;;;;;;4772573;30;20047;-77
2022/09/16 01:24:35;;;;;;;4.65;3.03;;;;;;;;;;4772668;30;20051;-77
2022/09/16 01:27:16;;;;;;;6.25;2.90;;;;;;;;;;4772353;30;20074;-77
2022/09/16 01:30:01;;;;;;;3.63;2.65;;;;;;;;;;4772834;30;20058;-77
2022/09/16 01:32:27;;;;;;;6.47;3.70;;;;;;;;;;4771983;30;20439;-77
2022/09/16 01:34:56;;;;;;;5.07;3.28;;;;;;;;;;4772172;30;20116;-77
2022/09/16 01:37:22;;;;;;;7.05;3.30;;;;;;;;;;4772123;30;20055;-77
2022/09/16 01:39:53;;;;;;;6.03;3.65;;;;;;;;;;4771882;30;20147;-77
2022/09/16 01:42:39;;;;;;;5.60;3.35;;;;;;;;;;4772142;30;20112;-77
2022/09/16 01:45:12;;;;;;;8.50;3.65;;;;;;;;;;4772392;30;20068;-77
2022/09/16 01:47:54;;;;;;;6.80;3.50;;;;;;;;;;4772541;30;20044;-76
2022/09/16 01:50:49;;;;;;;7.80;4.13;;;;;;;;;;4772454;30;20452;-77
2022/09/16 01:53:22;;;;;;;6.60;3.78;;;;;;;;;;4771168;30;20106;-77
2022/09/16 01:55:52;;;;;;;5.60;3.55;;;;;;;;;;4772119;30;20048;-76
2022/09/16 01:58:23;;;;;;;5.63;3.45;;;;;;;;;;4772106;30;20093;-76
2022/09/16 02:00:51;;;;;;;5.43;4.18;;;;;;;;;;4771814;30;20047;-76
2022/09/16 02:03:26;;;;;;;5.82;3.17;;;;;;;;;;4772627;30;20052;-76
2022/09/16 02:06:01;;;;;;;4.55;3.55;;;;;;;;;;4772151;30;20512;-77
2022/09/16 02:08:32;;;;;;;7.60;4.05;;;;;;;;;;4771591;30;20055;-77
2022/09/16 02:11:00;;;;;;;4.40;3.30;;;;;;;;;;4772204;30;20059;-77
2022/09/16 02:13:29;;;;;;;5.72;3.55;;;;;;;;;;4772501;30;20043;-77
2022/09/16 02:15:59;;;;;;;5.50;3.28;;;;;;;;;;4771774;30;20517;-77
2022/09/16 02:18:27;;;;;;;6.60;3.20;;;;;;;;;;4771913;30;20047;-77
2022/09/16 02:20:56;;;;;;;7.25;3.17;;;;;;;;;;4771719;30;20109;-77
2022/09/16 02:23:23;;;;;;;5.75;3.33;;;;;;;;;;4771763;30;20048;-77
2022/09/16 02:25:50;;;;;;;4.15;2.80;;;;;;;;;;4771497;30;20055;-77
2022/09/16 02:28:18;;;;;;;3.65;2.92;;;;;;;;;;4772123;30;20496;-76
2022/09/16 02:30:46;;;;;;;4.53;2.92;;;;;;;;;;4771744;30;20098;-77
2022/09/16 02:33:14;;;;;;;5.50;3.08;;;;;;;;;;4772072;30;20488;-77
2022/09/16 02:35:40;;;;;;;4.43;3.25;;;;;;;;;;4771428;30;20040;-77
2022/09/16 02:38:12;;;;;;;2.97;2.67;;;;;;;;;;4771464;30;20575;-76
2022/09/16 02:40:44;;;;;;;5.72;2.72;;;;;;;;;;4771841;30;20044;-76
2022/09/16 02:43:10;;;;;;;4.40;2.88;;;;;;;;;;4771779;30;20066;-76
2022/09/16 02:45:43;;;;;;;4.38;2.70;;;;;;;;;;4771440;30;20059;-77
2022/09/16 02:48:22;;;;;;;6.38;3.08;;;;;;;;;;4771318;30;20047;-77
2022/09/16 02:50:57;;;;;;;4.07;2.90;;;;;;;;;;4771669;30;20055;-76
2022/09/16 02:53:42;;;;;;;5.30;3.03;;;;;;;;;;4771010;30;20070;-77
2022/09/16 02:56:13;;;;;;;3.78;2.70;;;;;;;;;;4771429;30;20175;-77
2022/09/16 02:58:40;;;;;;;5.10;2.47;;;;;;;;;;4770981;30;20055;-76
2022/09/16 03:01:06;;;;;;;4.05;2.92;;;;;;;;;;4771236;30;20047;-77
2022/09/16 03:03:32;;;;;;;4.43;2.95;;;;;;;;;;4771522;30;20105;-76
2022/09/16 03:06:17;;;;;;;3.35;2.90;;;;;;;;;;4772047;30;20047;-77
2022/09/16 03:08:44;;;;;;;5.45;2.95;;;;;;;;;;4774255;30;20074;-76
2022/09/16 03:11:33;;;;;;;4.93;3.22;;;;;;;;;;4774534;30;20039;-76
2022/09/16 03:14:06;;;;;;;3.42;2.47;;;;;;;;;;4773961;30;20047;-76
2022/09/16 03:16:32;;;;;;;4.38;2.80;;;;;;;;;;4774122;30;20063;-76
2022/09/16 03:19:01;;;;;;;3.95;2.80;;;;;;;;;;4774556;30;20074;-76
2022/09/16 03:21:48;;;;;;;4.10;2.20;;;;;;;;;;4774474;30;20055;-76
2022/09/16 03:24:34;;;;;;;4.05;2.60;;;;;;;;;;4774021;30;20100;-76
2022/09/16 03:27:07;;;;;;;4.82;2.97;;;;;;;;;;4773979;30;20063;-77
2022/09/16 03:29:39;;;;;;;5.72;2.90;;;;;;;;;;4774361;30;20048;-77
2022/09/16 03:32:09;;;;;;;5.82;2.90;;;;;;;;;;4773093;30;20063;-76
2022/09/16 03:34:36;;;;;;;3.20;2.70;;;;;;;;;;4774240;30;20047;-77
2022/09/16 03:37:04;;;;;;;5.03;2.70;;;;;;;;;;4773945;30;20059;-76
2022/09/16 03:39:32;;;;;;;3.15;2.60;;;;;;;;;;4774450;30;20071;-76
2022/09/16 03:42:01;;;;;;;5.18;3.53;;;;;;;;;;4773786;30;20050;-76
2022/09/16 03:44:31;;;;;;;5.30;3.42;;;;;;;;;;4774235;30;20109;-77
2022/09/16 03:46:57;;;;;;;7.47;3.60;;;;;;;;;;4774434;30;20055;-76
2022/09/16 03:49:23;;;;;;;8.05;3.97;;;;;;;;;;4774294;30;20055;-76
2022/09/16 03:51:49;;;;;;;4.57;3.60;;;;;;;;;;4772617;30;20051;-76
2022/09/16 03:54:15;;;;;;;3.75;3.40;;;;;;;;;;4774193;30;20109;-76
2022/09/16 03:56:42;;;;;;;4.28;3.40;;;;;;;;;;4773726;30;20056;-76
2022/09/16 03:59:08;;;;;;;4.60;3.10;;;;;;;;;;4773579;30;20134;-76
2022/09/16 04:01:34;;;;;;;3.83;3.00;;;;;;;;;;4774265;30;20576;-77
2022/09/16 04:04:00;;;;;;;3.60;3.03;;;;;;;;;;4774307;30;20044;-76
2022/09/16 04:06:26;;;;;;;3.40;3.10;;;;;;;;;;4773593;30;20063;-76
2022/09/16 04:08:52;;;;;;;4.18;2.97;;;;;;;;;;4774145;30;20055;-77
2022/09/16 04:11:19;;;;;;;5.60;3.13;;;;;;;;;;4774063;30;20096;-76
2022/09/16 04:13:45;;;;;;;3.78;2.95;;;;;;;;;;4773526;30;20400;-76
2022/09/16 04:16:11;;;;;;;5.10;2.80;;;;;;;;;;4773766;30;20055;-76
2022/09/16 04:18:37;;;;;;;3.33;2.90;;;;;;;;;;4773673;30;20044;-76
2022/09/16 04:21:03;;;;;;;4.72;3.28;;;;;;;;;;4774010;30;20052;-76
2022/09/16 04:23:30;;;;;;;3.85;3.40;;;;;;;;;;4773787;30;20051;-77
2022/09/16 04:26:02;;;;;;;7.68;3.58;;;;;;;;;;4773704;30;20056;-77
2022/09/16 04:28:29;;;;;;;3.40;2.97;;;;;;;;;;4773882;30;20462;-77
2022/09/16 04:30:59;;;;;;;6.22;3.20;;;;;;;;;;4773540;30;20485;-77
2022/09/16 04:33:27;;;;;;;4.72;3.35;;;;;;;;;;4773794;30;20047;-77
2022/09/16 04:35:53;;;;;;;4.50;3.63;;;;;;;;;;4772888;30;20134;-75
2022/09/16 04:38:19;;;;;;;5.32;3.60;;;;;;;;;;4772285;30;20408;-76
2022/09/16 04:40:45;;;;;;;4.65;4.07;;;;;;;;;;4773387;30;20109;-76
2022/09/16 04:43:11;;;;;;;5.88;3.63;;;;;;;;;;4773854;30;20078;-76
2022/09/16 04:45:37;;;;;;;5.80;4.50;;;;;;;;;;4772324;30;20071;-76
2022/09/16 04:48:03;;;;;;;6.85;4.22;;;;;;;;;;4772676;30;20110;-76
2022/09/16 04:50:30;;;;;;;6.28;4.80;;;;;;;;;;4772645;30;20051;-76
2022/09/16 04:52:56;;;;;;;4.82;4.28;;;;;;;;;;4772975;30;20055;-76
2022/09/16 04:55:22;;;;;;;6.10;4.68;;;;;;;;;;4772840;30;20196;-77
2022/09/16 04:57:49;;;;;;;7.20;5.05;;;;;;;;;;4772877;30;20048;-77
2022/09/16 05:00:15;;;;;;;5.85;4.68;;;;;;;;;;4772731;30;20051;-76
2022/09/16 05:02:44;;;;;;;6.65;5.40;;;;;;;;;;4773333;30;20047;-77
2022/09/16 05:05:11;;;;;;;5.47;4.75;;;;;;;;;;4773162;30;20043;-76
2022/09/16 05:07:37;;;;;;;7.72;5.20;;;;;;;;;;4772513;30;20134;-76
2022/09/16 05:10:04;;;;;;;5.45;4.80;;;;;;;;;;4772642;30;20047;-77
2022/09/16 05:12:30;;;;;;;6.22;4.57;;;;;;;;;;4772420;30;20095;-76
2022/09/16 05:14:56;;;;;;;5.68;4.78;;;;;;;;;;4772594;30;20075;-76
2022/09/16 05:17:22;;;;;;;5.22;4.43;;;;;;;;;;4772464;30;20048;-76
2022/09/16 05:19:48;;;;;;;5.38;4.80;;;;;;;;;;4772733;30;20136;-76
2022/09/16 05:22:14;;;;;;;5.55;4.72;;;;;;;;;;4772376;30;20087;-76
2022/09/16 05:24:43;;;;;;;4.90;4.10;;;;;;;;;;4772394;30;20082;-76
2022/09/16 05:27:09;;;;;;;6.85;4.75;;;;;;;;;;4772312;30;20071;-76
2022/09/16 05:29:35;;;;;;;5.60;4.63;;;;;;;;;;4772382;30;20043;-76
2022/09/16 05:32:01;;;;;;;8.10;5.28;;;;;;;;;;4771830;30;20051;-77
2022/09/16 05:34:27;;;;;;;7.97;5.25;;;;;;;;;;4772230;30;20104;-77
2022/09/16 05:36:54;;;;;;;5.30;4.47;;;;;;;;;;4772013;30;20047;-76
2022/09/16 05:39:21;;;;;;;5.13;4.00;;;;;;;;;;4772159;30;20131;-76
2022/09/16 05:41:48;;;;;;;4.95;4.38;;;;;;;;;;4772285;30;20051;-77
2022/09/16 05:44:14;;;;;;;6.13;4.00;;;;;;;;;;4770480;30;20052;-77
2022/09/16 05:46:41;;;;;;;5.32;4.13;;;;;;;;;;4770341;30;20420;-77
2022/09/16 05:49:07;;;;;;;4.97;4.20;;;;;;;;;;4768766;30;20050;-77
2022/09/16 05:51:34;;;;;;;4.90;3.90;;;;;;;;;;4770630;30;20047;-77
2022/09/16 05:54:00;;;;;;;4.32;3.33;;;;;;;;;;4770986;30;20130;-77
2022/09/16 05:56:28;;;;;;;4.05;3.40;;;;;;;;;;4768623;30;20508;-76
2022/09/16 05:58:56;;;;;;;4.68;3.45;;;;;;;;;;4770334;30;20088;-77
2022/09/16 06:01:23;;;;;;;6.60;3.15;;;;;;;;;;4771228;30;20054;-77
2022/09/16 06:03:50;;;;;;;4.20;3.08;;;;;;;;;;4771761;30;20110;-75
2022/09/16 06:06:22;;;;;;;5.03;2.88;;;;;;;;;;4771241;30;20512;-75
2022/09/16 06:08:49;;;;;;;4.43;3.17;;;;;;;;;;4767430;30;20044;-74
2022/09/16 06:11:15;;;;;;;4.97;3.05;;;;;;;;;;4771022;30;20492;-74
2022/09/16 06:13:42;;;;;;;4.35;2.60;;;;;;;;;;4770360;30;20100;-74
2022/09/16 06:16:08;;;;;;;4.55;2.70;;;;;;;;;;4769950;30;20528;-74
2022/09/16 06:18:35;;;;;;;6.45;2.75;;;;;;;;;;4770424;30;20446;-74
2022/09/16 06:21:08;;;;;;;4.00;2.53;;;;;;;;;;4770699;30;20518;-75
2022/09/16 06:23:35;;;;;;;5.07;2.53;;;;;;;;;;4770622;30;20048;-75
2022/09/16 06:26:02;;;;;;;3.90;2.55;;;;;;;;;;4770092;30;20534;-74
2022/09/16 06:28:28;;;;;;;5.13;2.70;;;;;;;;;;4771462;30;20039;-77
2022/09/16 06:31:02;;;;;;;5.15;2.50;;;;;;;;;;4770293;30;20412;-73
2022/09/16 06:33:28;;;;;;;3.17;2.38;;;;;;;;;;4770553;30;20130;-74
2022/09/16 06:35:55;;;;;;;4.38;2.10;;;;;;;;;;4771029;30;20051;-73
2022/09/16 06:38:21;;;;;;;3.42;1.75;;;;;;;;;;4770903;30;20043;-74
2022/09/16 06:40:49;;;;;;;2.97;2.35;;;;;;;;;;4772468;30;20070;-76
2022/09/16 06:43:15;;;;;;;2.50;1.70;;;;;;;;;;4775054;30;20097;-73
2022/09/16 06:45:41;;;;;;;3.05;2.05;;;;;;;;;;4774674;30;20382;-73
2022/09/16 06:48:07;;;;;;;4.45;2.05;;;;;;;;;;4774347;30;20136;-73
2022/09/16 06:50:33;;;;;;;2.38;2.17;;;;;;;;;;4774400;30;20543;-71
2022/09/16 06:53:00;;;;;;;2.90;1.75;;;;;;;;;;4774651;30;20043;-70
2022/09/16 06:55:26;;;;;;;2.55;1.77;;;;;;;;;;4774931;30;20075;-71
2022/09/16 06:57:53;;;;;;;2.47;1.65;;;;;;;;;;4774383;30;20372;-71
2022/09/16 07:00:19;;;;;;;4.18;2.47;;;;;;;;;;4774783;30;20569;-71
2022/09/16 07:02:45;;;;;;;2.55;2.10;;;;;;;;;;4774583;30;20040;-72
2022/09/16 07:05:12;;;;;;;2.80;1.80;;;;;;;;;;4775269;30;20127;-74
2022/09/16 07:07:38;;;;;;;2.38;1.63;;;;;;;;;;4774591;30;20052;-74
2022/09/16 07:10:05;;;;;;;2.63;1.80;;;;;;;;;;4774629;30;20484;-74
2022/09/16 07:12:31;;;;;;;3.40;1.70;;;;;;;;;;4774704;30;20504;-74
2022/09/16 07:14:57;;;;;;;2.17;1.85;;;;;;;;;;4774861;30;20135;-73
2022/09/16 07:17:26;;;;;;;3.60;1.55;;;;;;;;;;4774250;30;20086;-74
2022/09/16 07:19:52;;;;;;;3.55;1.80;;;;;;;;;;4774247;30;20055;-74
2022/09/16 07:22:18;;;;;;;3.70;1.90;;;;;;;;;;4774351;30;20040;-73
2022/09/16 07:24:45;;;;;;;2.53;1.85;;;;;;;;;;4774203;30;20048;-73
2022/09/16 07:27:11;;;;;;;3.28;1.63;;;;;;;;;;4774088;30;20044;-73
2022/09/16 07:29:37;;;;;;;2.28;1.70;;;;;;;;;;4774410;30;20062;-74
2022/09/16 07:32:03;;;;;;;2.10;1.88;;;;;;;;;;4774434;30;20054;-73
2022/09/16 07:34:29;;;;;;;1.77;1.67;;;;;;;;;;4774245;30;20519;-73
2022/09/16 07:36:56;;;;;;;2.47;1.60;;;;;;;;;;4773812;30;20060;-73
2022/09/16 07:39:24;;;;;;;3.22;1.60;;;;;;;;;;4773913;30;20452;-73
2022/09/16 07:41:50;;;;;;;2.00;1.80;;;;;;;;;;4774318;30;20051;-73
2022/09/16 07:44:17;;;;;;;2.30;1.77;;;;;;;;;;4773832;30;20431;-73
2022/09/16 07:46:44;;;;;;;4.38;2.20;;;;;;;;;;4773783;30;20512;-73
2022/09/16 07:49:11;;;;;;;3.08;2.13;;;;;;;;;;4774546;30;20044;-73
2022/09/16 07:51:37;;;;;;;2.45;2.10;;;;;;;;;;4773559;30;20051;-73
2022/09/16 07:54:05;;;;;;;5.55;2.10;;;;;;;;;;4774014;30;20114;-73
2022/09/16 07:56:33;;;;;;;4.43;2.25;;;;;;;;;;4773842;30;20051;-73
2022/09/16 07:59:00;;;;;;;3.05;2.17;;;;;;;;;;4773808;30;20116;-73
2022/09/16 08:01:26;;;;;;;1.90;1.80;;;;;;;;;;4773570;30;20055;-73
2022/09/16 08:03:52;;;;;;;2.55;1.90;;;;;;;;;;4773576;30;20051;-73
2022/09/16 08:06:23;;;;;;;2.60;2.10;;;;;;;;;;4773588;30;20048;-73
2022/09/16 08:08:53;;;;;;;2.83;1.83;;;;;;;;;;4774000;30;20048;-74
2022/09/16 08:11:19;;;;;;;2.53;1.80;;;;;;;;;;4773906;30;20052;-73
2022/09/16 08:13:45;;;;;;;2.28;2.00;;;;;;;;;;4773355;30;20047;-73
2022/09/16 08:16:13;;;;;;;2.50;2.00;;;;;;;;;;4774001;30;20127;-73
2022/09/16 08:18:40;;;;;;;2.75;2.45;;;;;;;;;;4773317;30;20044;-73
2022/09/16 08:21:09;;;;;;;2.30;2.00;;;;;;;;;;4773786;30;20051;-73
2022/09/16 08:23:36;;;;;;;4.30;2.38;;;;;;;;;;4773497;30;20048;-73
2022/09/16 08:26:02;;;;;;;2.92;2.08;;;;;;;;;;4773725;30;20051;-73
2022/09/16 08:28:29;;;;;;;2.63;1.88;;;;;;;;;;4773131;30;20492;-73
2022/09/16 08:30:57;;;;;;;3.20;2.22;;;;;;;;;;4773345;30;20124;-73
2022/09/16 08:33:24;;;;;;;4.40;2.50;;;;;;;;;;4773395;30;20050;-73
2022/09/16 08:36:18;;;;;;;4.32;2.22;;;;;;;;;;4773174;30;20044;-73
2022/09/16 08:38:45;;;;;;;4.78;2.63;;;;;;;;;;4773773;29;20082;-73
2022/09/16 08:41:47;;;;;;;6.30;2.53;;;;;;;;;;4773527;30;20048;-73
2022/09/16 08:44:31;;;;;;;2.78;2.13;;;;;;;;;;4806563;29;20046;-73
2022/09/16 08:47:02;;;;;;;4.68;2.35;;;;;;;;;;4775043;29;20142;-73
2022/09/16 08:49:31;;;;;;;2.63;2.42;;;;;;;;;;4772764;30;20055;-73
2022/09/16 08:51:58;;;;;;;3.17;2.25;;;;;;;;;;4772977;30;20059;-73
2022/09/16 08:54:31;;;;;;;2.92;2.40;;;;;;;;;;4773278;30;20044;-73
2022/09/16 08:56:59;;;;;;;5.68;2.45;;;;;;;;;;4772643;30;20052;-73
2022/09/16 08:59:30;;;;;;;4.47;2.35;;;;;;;;;;4772925;30;20047;-73
2022/09/16 09:02:12;;;;;;;4.43;2.58;;;;;;;;;;4772922;30;20036;-73
2022/09/16 09:04:38;;;;;;;3.65;2.40;;;;;;;;;;4772039;30;20056;-73
2022/09/16 09:07:16;;;;;;;3.55;2.17;;;;;;;;;;4772348;30;20052;-73
2022/09/16 09:09:42;;;;;;;3.35;2.42;;;;;;;;;;4772464;30;20407;-74
2022/09/16 09:12:13;;;;;;;4.95;2.17;;;;;;;;;;4771481;30;20453;-74
2022/09/16 09:14:39;;;;;;;3.92;2.20;;;;;;;;;;4773091;30;20051;-73
2022/09/16 09:17:05;;;;;;;3.40;2.20;;;;;;;;;;4772488;30;20147;-73
2022/09/16 09:19:40;;;;;;;3.35;2.00;;;;;;;;;;4773060;30;20047;-72
2022/09/16 09:22:27;;;;;;;5.63;2.45;;;;;;;;;;4772430;30;20054;-73
2022/09/16 09:25:12;;;;;;;4.13;2.47;;;;;;;;;;4772737;30;20055;-73
2022/09/16 09:27:58;;;;;;;2.47;1.70;;;;;;;;;;4772628;30;20079;-73
2022/09/16 09:30:26;;;;;;;3.42;1.73;;;;;;;;;;4777383;29;20047;-73
2022/09/16 09:32:55;;;;;;;3.67;2.08;;;;;;;;;;4772578;30;20055;-73
2022/09/16 09:35:24;;;;;;;3.30;1.92;;;;;;;;;;4772356;30;20130;-73
2022/09/16 09:38:02;;;;;;;2.08;1.88;;;;;;;;;;4771701;30;20051;-73
2022/09/16 09:40:31;;;;;;;4.32;1.90;;;;;;;;;;4772330;30;20565;-73
2022/09/16 09:42:57;;;;;;;2.55;1.85;;;;;;;;;;4772653;30;20124;-73
2022/09/16 09:45:35;;;;;;;3.45;1.70;;;;;;;;;;4771729;30;20092;-73
2022/09/16 09:48:31;;;;;;;2.75;1.73;;;;;;;;;;4772388;30;20500;-73
2022/09/16 09:50:58;;;;;;;1.58;1.42;;;;;;;;;;4778441;29;20048;-73
2022/09/16 09:53:27;;;;;;;3.63;1.80;;;;;;;;;;4771525;30;20489;-73
2022/09/16 09:56:26;;;;;;;5.40;2.10;;;;;;;;;;4771703;30;20044;-73
2022/09/16 09:59:00;;;;;;;2.00;1.40;;;;;;;;;;4789596;29;20051;-73
2022/09/16 10:01:26;;;;;;;2.92;1.52;;;;;;;;;;4771591;30;20127;-73
2022/09/16 10:03:54;;;;;;;2.53;1.65;;;;;;;;;;4771835;30;20047;-72
2022/09/16 10:06:26;;;;;;;2.05;1.58;;;;;;;;;;4771565;30;20051;-72
2022/09/16 10:08:53;;;;;;;2.63;1.83;;;;;;;;;;4771793;30;20501;-73
2022/09/16 10:11:21;;;;;;;1.77;1.55;;;;;;;;;;4771602;30;20056;-73
2022/09/16 10:13:49;;;;;;;5.60;1.88;;;;;;;;;;4771687;30;20059;-73
2022/09/16 10:16:17;;;;;;;2.95;1.70;;;;;;;;;;4771503;30;20082;-73
2022/09/16 10:18:43;;;;;;;4.22;1.60;;;;;;;;;;4771678;30;20059;-73
2022/09/16 10:21:12;;;;;;;5.45;1.65;;;;;;;;;;4771333;30;20054;-73
2022/09/16 10:23:38;;;;;;;1.95;1.73;;;;;;;;;;4771555;30;20433;-73
2022/09/16 10:26:23;;;;;;;2.17;1.70;;;;;;;;;;4771548;30;20044;-73
2022/09/16 10:29:00;;;;;;;2.17;1.63;;;;;;;;;;4772104;30;20054;-73
2022/09/16 10:31:29;;;;;;;4.25;1.77;;;;;;;;;;4771659;30;20136;-73
2022/09/16 10:33:56;;;;;;;2.67;1.65;;;;;;;;;;4772049;30;20047;-73
2022/09/16 10:36:25;;;;;;;6.13;1.73;;;;;;;;;;4771183;30;20136;-73
2022/09/16 10:38:54;;;;;;;2.05;1.52;;;;;;;;;;4771699;30;20058;-72
2022/09/16 10:41:24;;;;;;;3.30;1.98;;;;;;;;;;4771020;30;20528;-70
2022/09/16 10:43:52;;;;;;;1.85;1.48;;;;;;;;;;4771441;30;20055;-71
2022/09/16 10:46:19;;;;;;;3.05;1.73;;;;;;;;;;4770886;30;20063;-71
2022/09/16 10:48:45;;;;;;;3.20;1.95;;;;;;;;;;4771122;30;20138;-71
2022/09/16 10:51:21;;;;;;;2.70;1.50;;;;;;;;;;4771671;30;20123;-73
2022/09/16 10:53:51;;;;;;;2.40;1.88;;;;;;;;;;4771351;30;20050;-73
2022/09/16 10:56:19;;;;;;;2.63;1.70;;;;;;;;;;4771812;30;20059;-72
2022/09/16 10:58:46;;;;;;;2.65;1.88;;;;;;;;;;4771578;30;20050;-73
2022/09/16 11:01:21;;;;;;;3.63;1.70;;;;;;;;;;4771342;30;20056;-73
2022/09/16 11:03:53;;;;;;;1.75;1.48;;;;;;;;;;4771244;30;20055;-73
2022/09/16 11:06:27;;;;;;;3.70;1.98;;;;;;;;;;4771162;30;20131;-73
2022/09/16 11:09:11;;;;;;;2.83;2.08;;;;;;;;;;4770577;30;20093;-73
2022/09/16 11:11:55;;;;;;;3.53;1.70;;;;;;;;;;4771351;30;20126;-73
2022/09/16 11:14:39;;;;;;;3.88;1.98;;;;;;;;;;4771427;30;20048;-73
2022/09/16 11:17:12;;;;;;;3.58;1.55;;;;;;;;;;4771573;30;20052;-73
2022/09/16 11:19:39;;;;;;;1.80;1.40;;;;;;;;;;4770850;30;20043;-73
2022/09/16 11:22:24;;;;;;;3.20;2.03;;;;;;;;;;4770376;30;20044;-73
2022/09/16 11:24:50;;;;;;;4.00;1.70;;;;;;;;;;4771773;30;20039;-73
2022/09/16 11:27:16;;;;;;;3.55;1.73;;;;;;;;;;4772300;30;20057;-70
2022/09/16 11:29:57;;;;;;;2.25;2.05;;;;;;;;;;4774627;30;20120;-72
2022/09/16 11:32:49;;;;;;;1.85;1.67;;;;;;;;;;4774420;30;20048;-73
2022/09/16 11:35:27;;;;;;;2.25;1.90;;;;;;;;;;4775049;29;20044;-74
2022/09/16 11:37:59;;;;;;;3.88;2.10;;;;;;;;;;4773716;30;20055;-73
2022/09/16 11:40:25;;;;;;;4.55;2.10;;;;;;;;;;4774623;30;20050;-71
2022/09/16 11:42:58;;;;;;;4.47;2.55;;;;;;;;;;4774201;30;20137;-73
2022/09/16 11:45:27;;;;;;;2.03;1.83;;;;;;;;;;4773751;30;20113;-73
2022/09/16 11:47:59;;;;;;;2.70;2.30;;;;;;;;;;4774374;30;20126;-73
2022/09/16 11:50:34;;;;;;;3.17;2.55;;;;;;;;;;4774503;30;20052;-73
2022/09/16 11:53:15;;;;;;;2.88;2.13;;;;;;;;;;4774165;30;20052;-73
2022/09/16 11:55:42;;;;;;;3.28;2.60;;;;;;;;;;4774111;30;20051;-73
2022/09/16 11:58:17;;;;;;;4.68;3.33;;;;;;;;;;4773819;30;20083;-73
2022/09/16 12:00:44;;;;;;;3.58;2.72;;;;;;;;;;4774300;30;20066;-73
2022/09/16 12:03:13;;;;;;;3.42;2.50;;;;;;;;;;4774176;30;20105;-73
2022/09/16 12:05:48;;;;;;;4.00;2.45;;;;;;;;;;4774064;30;20043;-73
2022/09/16 12:08:28;;;;;;;2.70;2.33;;;;;;;;;;4774074;30;20055;-73
2022/09/16 12:10:59;;;;;;;4.07;2.95;;;;;;;;;;4774077;30;20059;-73
2022/09/16 12:13:36;;;;;;;6.22;2.50;;;;;;;;;;4774014;30;20046;-73
2022/09/16 12:16:05;;;;;;;3.42;2.55;;;;;;;;;;4773626;30;20048;-73
2022/09/16 12:18:36;;;;;;;3.42;2.58;;;;;;;;;;4773240;30;20105;-73
2022/09/16 12:21:03;;;;;;;3.08;2.78;;;;;;;;;;4773682;30;20054;-73
2022/09/16 12:23:31;;;;;;;3.35;2.88;;;;;;;;;;4773663;30;20052;-73
2022/09/16 12:26:20;;;;;;;3.10;2.75;;;;;;;;;;4773782;30;20043;-73
2022/09/16 12:28:49;;;;;;;3.22;2.92;;;;;;;;;;4777083;29;20043;-73
2022/09/16 12:31:26;;;;;;;3.13;2.78;;;;;;;;;;4773214;30;20100;-73
2022/09/16 12:33:55;;;;;;;3.75;2.75;;;;;;;;;;4772658;30;20460;-73
2022/09/16 12:36:24;;;;;;;3.13;2.72;;;;;;;;;;4772806;30;20552;-73
2022/09/16 12:38:50;;;;;;;4.43;2.83;;;;;;;;;;4773108;30;20052;-73
2022/09/16 12:41:35;;;;;;;3.03;2.67;;;;;;;;;;4773172;30;20048;-73
2022/09/16 12:44:20;;;;;;;5.78;2.70;;;;;;;;;;4773185;30;20114;-73
2022/09/16 12:47:05;;;;;;;3.63;2.88;;;;;;;;;;4773202;30;20528;-73
2022/09/16 12:49:52;;;;;;;5.80;3.20;;;;;;;;;;4773377;30;20056;-73
2022/09/16 12:52:24;;;;;;;3.13;2.83;;;;;;;;;;4772296;30;20044;-73
2022/09/16 12:55:07;;;;;;;5.25;2.85;;;;;;;;;;4773230;30;20087;-73
2022/09/16 12:57:52;;;;;;;3.28;2.60;;;;;;;;;;4773183;30;20135;-74
2022/09/16 13:00:37;;;;;;;4.43;3.10;;;;;;;;;;4772620;30;20550;-74
2022/09/16 13:03:09;;;;;;;3.00;2.67;;;;;;;;;;4772550;30;20127;-74
2022/09/16 13:05:36;;;;;;;3.33;3.00;;;;;;;;;;4773450;30;20044;-74
2022/09/16 13:08:14;;;;;;;3.53;3.05;;;;;;;;;;4772619;30;20059;-74
2022/09/16 13:10:42;;;;;;;2.97;2.55;;;;;;;;;;4772974;30;20096;-74
2022/09/16 13:13:18;;;;;;;3.97;3.10;;;;;;;;;;4772997;30;20063;-74
2022/09/16 13:15:54;;;;;;;2.88;2.67;;;;;;;;;;4772381;30;20381;-74
2022/09/16 13:18:28;;;;;;;3.92;2.63;;;;;;;;;;4772393;30;20412;-73
2022/09/16 13:20:59;;;;;;;2.78;2.50;;;;;;;;;;4772763;30;20081;-73
2022/09/16 13:23:33;;;;;;;3.05;2.55;;;;;;;;;;4772481;30;20078;-73
2022/09/16 13:26:05;;;;;;;4.88;2.15;;;;;;;;;;4772392;30;20589;-73
2022/09/16 13:28:32;;;;;;;3.33;2.63;;;;;;;;;;4772312;30;20040;-74
2022/09/16 13:31:14;;;;;;;3.22;2.30;;;;;;;;;;4772658;30;20089;-75
2022/09/16 13:33:42;;;;;;;4.43;2.50;;;;;;;;;;4772068;30;20050;-72
2022/09/16 13:36:21;;;;;;;3.08;2.50;;;;;;;;;;4772196;30;20100;-72
2022/09/16 13:38:51;;;;;;;3.20;2.35;;;;;;;;;;4771876;30;20139;-69
2022/09/16 13:41:29;;;;;;;2.60;2.28;;;;;;;;;;4772519;30;20112;-69
2022/09/16 13:43:56;;;;;;;5.40;2.25;;;;;;;;;;4772481;30;20064;-69
2022/09/16 13:46:27;;;;;;;3.65;2.45;;;;;;;;;;4771763;30;20059;-73
2022/09/16 13:49:09;;;;;;;2.63;2.42;;;;;;;;;;4772583;30;20039;-73
2022/09/16 13:51:44;;;;;;;6.05;2.80;;;;;;;;;;4771128;30;20047;-73
2022/09/16 13:54:26;;;;;;;2.25;2.00;;;;;;;;;;4771642;30;20408;-73
2022/09/16 13:56:52;;;;;;;3.72;2.20;;;;;;;;;;4758536;30;20139;-73
2022/09/16 13:59:25;;;;;;;2.97;2.35;;;;;;;;;;4781012;29;20057;-73
2022/09/16 14:02:00;;;;;;;2.65;2.17;;;;;;;;;;4763891;30;20636;-73
2022/09/16 14:04:30;;;;;;;4.25;2.20;;;;;;;;;;4766892;30;20078;-73
2022/09/16 14:06:59;;;;;;;3.50;2.20;;;;;;;;;;4769345;30;20063;-72
2022/09/16 14:09:38;;;;;;;2.30;2.10;;;;;;;;;;4768825;30;20043;-72
2022/09/16 14:12:04;;;;;;;2.30;2.10;;;;;;;;;;4769634;30;20083;-72
2022/09/16 14:14:32;;;;;;;2.97;2.28;;;;;;;;;;4770016;30;20531;-72
2022/09/16 14:17:00;;;;;;;2.90;2.60;;;;;;;;;;4770247;30;20150;-72
2022/09/16 14:19:28;;;;;;;3.92;2.70;;;;;;;;;;4770356;30;20047;-73
2022/09/16 14:22:05;;;;;;;2.65;2.03;;;;;;;;;;4770594;30;20095;-72
2022/09/16 14:24:35;;;;;;;3.80;2.47;;;;;;;;;;4780096;30;20047;-73
2022/09/16 14:27:01;;;;;;;2.55;2.10;;;;;;;;;;4787837;29;20099;-73
2022/09/16 14:29:28;;;;;;;4.13;2.58;;;;;;;;;;4788355;30;20047;-73
2022/09/16 14:31:55;;;;;;;3.78;2.60;;;;;;;;;;4788321;29;20109;-72
2022/09/16 14:34:35;;;;;;;3.90;2.70;;;;;;;;;;4782682;29;20047;-72
2022/09/16 14:37:01;;;;;;;3.27;2.37;;;;;;;;;;4770723;30;20067;-72
2022/09/16 14:39:28;;;;;;;3.33;2.85;;;;;;;;;;4771568;30;20290;-72
2022/09/16 14:41:58;;;;;;;3.42;2.63;;;;;;;;;;4788850;29;20047;-72
2022/09/16 14:44:28;;;;;;;3.30;2.95;;;;;;;;;;4786822;29;20055;-73
2022/09/16 14:47:17;;;;;;;3.65;2.88;;;;;;;;;;4770258;30;20163;-73
2022/09/16 14:49:46;;;;;;;4.20;2.72;;;;;;;;;;4772084;30;20091;-73
2022/09/16 14:52:28;;;;;;;3.58;2.90;;;;;;;;;;4770474;30;20054;-73
2022/09/16 14:54:56;;;;;;;4.05;2.75;;;;;;;;;;4781415;30;20058;-73
2022/09/16 14:57:23;;;;;;;3.30;2.90;;;;;;;;;;4787396;29;20047;-73
2022/09/16 14:59:50;;;;;;;2.88;2.67;;;;;;;;;;4785423;30;20528;-72
2022/09/16 15:02:19;;;;;;;3.00;2.70;;;;;;;;;;4790054;29;20332;-73
2022/09/16 15:04:46;;;;;;;5.55;2.55;;;;;;;;;;4791910;29;20046;-73